sensor_id;sensor_type;location;lat;lon;timestamp;pressure;altitude;pressure_sealevel;temperature;humidity
40794;BME280;26502;51.886;15.604;2024-02-23T00:03:25;98027.48;;;9.67;84.65
40794;BME280;26502;51.886;15.604;2024-02-23T00:08:51;98025.95;;;9.69;84.76
40794;BME280;26502;51.886;15.604;2024-02-23T00:14:18;98018.99;;;9.69;84.89
40794;BME280;26502;51.886;15.604;2024-02-23T00:19:46;98009.67;;;9.71;85.04
40794;BME280;26502;51.886;15.604;2024-02-23T00:25:13;98005.96;;;9.73;84.93
40794;BME280;26502;51.886;15.604;2024-02-23T00:30:39;98002.12;;;9.72;84.79
40794;BME280;26502;51.886;15.604;2024-02-23T00:36:06;98007.42;;;9.75;84.99
40794;BME280;26502;51.886;15.604;2024-02-23T00:41:32;98009.64;;;9.81;85.02
40794;BME280;26502;51.886;15.604;2024-02-23T00:46:58;98016.39;;;9.88;85.00
40794;BME280;26502;51.886;15.604;2024-02-23T00:52:25;98018.20;;;9.97;84.69
40794;BME280;26502;51.886;15.604;2024-02-23T00:57:53;98009.45;;;10.01;84.56
40794;BME280;26502;51.886;15.604;2024-02-23T01:03:19;98017.02;;;9.99;84.42
40794;BME280;26502;51.886;15.604;2024-02-23T01:08:45;98017.48;;;10.00;84.40
40794;BME280;26502;51.886;15.604;2024-02-23T01:14:11;98012.58;;;10.04;84.38
40794;BME280;26502;51.886;15.604;2024-02-23T01:19:38;98019.27;;;10.07;84.20
40794;BME280;26502;51.886;15.604;2024-02-23T01:25:05;98017.63;;;10.13;83.99
40794;BME280;26502;51.886;15.604;2024-02-23T01:30:31;98016.17;;;10.18;83.87
40794;BME280;26502;51.886;15.604;2024-02-23T01:35:57;98014.31;;;10.22;83.61
40794;BME280;26502;51.886;15.604;2024-02-23T01:41:22;98013.54;;;10.28;83.52
40794;BME280;26502;51.886;15.604;2024-02-23T01:46:48;98017.70;;;10.26;83.34
40794;BME280;26502;51.886;15.604;2024-02-23T01:52:15;98006.63;;;10.30;83.43
40794;BME280;26502;51.886;15.604;2024-02-23T01:57:42;98006.11;;;10.35;83.13
40794;BME280;26502;51.886;15.604;2024-02-23T02:03:07;98010.89;;;10.38;83.05
40794;BME280;26502;51.886;15.604;2024-02-23T02:08:34;98013.60;;;10.44;82.65
40794;BME280;26502;51.886;15.604;2024-02-23T02:14:00;98018.95;;;10.53;82.38
40794;BME280;26502;51.886;15.604;2024-02-23T02:19:26;98035.27;;;10.56;82.28
40794;BME280;26502;51.886;15.604;2024-02-23T02:24:52;98035.17;;;10.59;82.27
40794;BME280;26502;51.886;15.604;2024-02-23T02:30:18;98050.13;;;10.63;81.79
40794;BME280;26502;51.886;15.604;2024-02-23T02:35:45;98058.43;;;10.64;81.76
40794;BME280;26502;51.886;15.604;2024-02-23T02:41:11;98062.03;;;10.63;81.65
40794;BME280;26502;51.886;15.604;2024-02-23T02:46:37;98068.94;;;10.66;81.50
40794;BME280;26502;51.886;15.604;2024-02-23T02:52:05;98081.52;;;10.71;81.12
40794;BME280;26502;51.886;15.604;2024-02-23T02:57:32;98088.78;;;10.76;81.03
40794;BME280;26502;51.886;15.604;2024-02-23T03:03:00;98093.20;;;10.72;80.89
40794;BME280;26502;51.886;15.604;2024-02-23T03:08:26;98094.83;;;10.74;80.89
40794;BME280;26502;51.886;15.604;2024-02-23T03:13:52;98104.65;;;10.78;80.57
40794;BME280;26502;51.886;15.604;2024-02-23T03:19:18;98110.91;;;10.77;80.57
40794;BME280;26502;51.886;15.604;2024-02-23T03:24:46;98127.19;;;10.77;80.49
40794;BME280;26502;51.886;15.604;2024-02-23T03:30:13;98146.75;;;10.82;80.26
40794;BME280;26502;51.886;15.604;2024-02-23T03:35:40;98157.95;;;10.82;79.89
40794;BME280;26502;51.886;15.604;2024-02-23T03:41:06;98169.28;;;10.87;79.65
40794;BME280;26502;51.886;15.604;2024-02-23T03:46:33;98176.60;;;10.89;79.75
40794;BME280;26502;51.886;15.604;2024-02-23T03:52:03;98188.11;;;10.85;79.71
40794;BME280;26502;51.886;15.604;2024-02-23T03:57:29;98197.25;;;10.86;79.40
40794;BME280;26502;51.886;15.604;2024-02-23T04:02:55;98207.62;;;10.85;79.47
40794;BME280;26502;51.886;15.604;2024-02-23T04:08:20;98212.91;;;10.83;79.25
40794;BME280;26502;51.886;15.604;2024-02-23T04:13:46;98216.15;;;10.80;79.16
40794;BME280;26502;51.886;15.604;2024-02-23T04:19:12;98221.95;;;10.76;78.97
40794;BME280;26502;51.886;15.604;2024-02-23T04:24:39;98231.20;;;10.75;78.71
40794;BME280;26502;51.886;15.604;2024-02-23T04:30:09;98247.71;;;10.78;77.64
40794;BME280;26502;51.886;15.604;2024-02-23T04:35:35;98265.42;;;10.84;76.06
40794;BME280;26502;51.886;15.604;2024-02-23T04:41:03;98279.80;;;10.96;73.80
40794;BME280;26502;51.886;15.604;2024-02-23T04:46:30;98300.75;;;10.96;73.47
40794;BME280;26502;51.886;15.604;2024-02-23T04:51:56;98316.81;;;11.00;72.24
40794;BME280;26502;51.886;15.604;2024-02-23T04:57:21;98332.35;;;11.01;69.72
40794;BME280;26502;51.886;15.604;2024-02-23T05:02:48;98346.88;;;11.09;68.04
40794;BME280;26502;51.886;15.604;2024-02-23T05:08:13;98361.95;;;11.16;65.13
40794;BME280;26502;51.886;15.604;2024-02-23T05:13:39;98381.52;;;11.19;63.74
40794;BME280;26502;51.886;15.604;2024-02-23T05:19:06;98392.63;;;11.12;63.31
40794;BME280;26502;51.886;15.604;2024-02-23T05:24:32;98394.70;;;11.11;62.30
40794;BME280;26502;51.886;15.604;2024-02-23T05:29:58;98410.05;;;11.07;62.10
40794;BME280;26502;51.886;15.604;2024-02-23T05:35:24;98417.77;;;10.99;62.14
40794;BME280;26502;51.886;15.604;2024-02-23T05:40:50;98426.88;;;10.93;61.74
40794;BME280;26502;51.886;15.604;2024-02-23T05:46:18;98438.45;;;10.79;62.66
40794;BME280;26502;51.886;15.604;2024-02-23T05:51:45;98442.66;;;10.67;63.32
40794;BME280;26502;51.886;15.604;2024-02-23T05:57:11;98456.13;;;10.54;64.19
40794;BME280;26502;51.886;15.604;2024-02-23T06:02:37;98468.97;;;10.45;64.36
40794;BME280;26502;51.886;15.604;2024-02-23T06:08:04;98480.14;;;10.35;65.24
40794;BME280;26502;51.886;15.604;2024-02-23T06:13:29;98503.91;;;10.24;65.56
40794;BME280;26502;51.886;15.604;2024-02-23T06:18:55;98521.26;;;10.16;65.78
40794;BME280;26502;51.886;15.604;2024-02-23T06:24:21;98532.13;;;10.08;65.77
40794;BME280;26502;51.886;15.604;2024-02-23T06:29:47;98548.45;;;9.99;65.41
40794;BME280;26502;51.886;15.604;2024-02-23T06:35:13;98561.05;;;9.96;65.02
40794;BME280;26502;51.886;15.604;2024-02-23T06:40:38;98578.17;;;9.91;64.52
40794;BME280;26502;51.886;15.604;2024-02-23T06:46:07;98584.55;;;9.86;63.60
40794;BME280;26502;51.886;15.604;2024-02-23T06:51:34;98591.52;;;9.77;64.02
40794;BME280;26502;51.886;15.604;2024-02-23T06:57:00;98613.70;;;9.68;62.71
40794;BME280;26502;51.886;15.604;2024-02-23T07:02:26;98634.73;;;9.60;62.85
40794;BME280;26502;51.886;15.604;2024-02-23T07:07:52;98663.85;;;9.53;63.39
40794;BME280;26502;51.886;15.604;2024-02-23T07:13:18;98669.93;;;9.43;60.05
40794;BME280;26502;51.886;15.604;2024-02-23T07:18:44;98694.42;;;9.37;58.39
40794;BME280;26502;51.886;15.604;2024-02-23T07:24:10;98718.89;;;9.30;58.61
40794;BME280;26502;51.886;15.604;2024-02-23T07:29:36;98724.48;;;9.22;57.84
40794;BME280;26502;51.886;15.604;2024-02-23T07:35:02;98722.53;;;9.16;56.42
40794;BME280;26502;51.886;15.604;2024-02-23T07:40:31;98729.89;;;9.15;55.12
40794;BME280;26502;51.886;15.604;2024-02-23T07:45:57;98743.55;;;9.11;55.01
40794;BME280;26502;51.886;15.604;2024-02-23T07:51:23;98740.86;;;9.05;55.50
40794;BME280;26502;51.886;15.604;2024-02-23T07:56:50;98734.86;;;9.02;55.92
40794;BME280;26502;51.886;15.604;2024-02-23T08:02:18;98732.59;;;9.01;55.30
40794;BME280;26502;51.886;15.604;2024-02-23T08:07:44;98739.60;;;9.03;56.76
40794;BME280;26502;51.886;15.604;2024-02-23T08:13:10;98755.05;;;9.02;56.24
40794;BME280;26502;51.886;15.604;2024-02-23T08:18:35;98779.20;;;9.03;56.20
40794;BME280;26502;51.886;15.604;2024-02-23T08:24:02;98798.55;;;9.06;55.37
40794;BME280;26502;51.886;15.604;2024-02-23T08:29:28;98815.16;;;9.03;55.73
40794;BME280;26502;51.886;15.604;2024-02-23T08:34:54;98835.91;;;9.03;55.50
40794;BME280;26502;51.886;15.604;2024-02-23T08:40:23;98831.98;;;9.00;55.27
40794;BME280;26502;51.886;15.604;2024-02-23T08:45:49;98846.14;;;9.00;56.02
40794;BME280;26502;51.886;15.604;2024-02-23T08:51:15;98858.05;;;9.06;56.47
40794;BME280;26502;51.886;15.604;2024-02-23T08:56:41;98858.92;;;9.12;56.53
40794;BME280;26502;51.886;15.604;2024-02-23T09:02:07;98859.89;;;9.17;56.44
40794;BME280;26502;51.886;15.604;2024-02-23T09:07:34;98864.58;;;9.19;56.55
40794;BME280;26502;51.886;15.604;2024-02-23T09:13:00;98862.83;;;9.22;56.74
40794;BME280;26502;51.886;15.604;2024-02-23T09:18:26;98876.59;;;9.23;56.74
40794;BME280;26502;51.886;15.604;2024-02-23T09:23:52;98879.48;;;9.28;57.06
40794;BME280;26502;51.886;15.604;2024-02-23T09:29:17;98882.39;;;9.33;57.44
40794;BME280;26502;51.886;15.604;2024-02-23T09:34:45;98879.62;;;9.35;57.57
40794;BME280;26502;51.886;15.604;2024-02-23T09:40:12;98891.70;;;9.41;57.98
40794;BME280;26502;51.886;15.604;2024-02-23T09:45:39;98885.73;;;9.46;58.06
40794;BME280;26502;51.886;15.604;2024-02-23T09:51:07;98896.40;;;9.45;58.02
40794;BME280;26502;51.886;15.604;2024-02-23T09:56:33;98903.07;;;9.50;57.47
40794;BME280;26502;51.886;15.604;2024-02-23T10:02:01;98914.38;;;9.48;57.09
40794;BME280;26502;51.886;15.604;2024-02-23T10:07:29;98914.92;;;9.44;57.13
40794;BME280;26502;51.886;15.604;2024-02-23T10:12:55;98916.97;;;9.42;57.14
40794;BME280;26502;51.886;15.604;2024-02-23T10:18:22;98928.86;;;9.45;57.48
40794;BME280;26502;51.886;15.604;2024-02-23T10:23:49;98933.55;;;9.56;56.94
40794;BME280;26502;51.886;15.604;2024-02-23T10:29:16;98936.21;;;9.53;56.74
40794;BME280;26502;51.886;15.604;2024-02-23T10:34:44;98937.86;;;9.55;56.76
40794;BME280;26502;51.886;15.604;2024-02-23T10:40:13;98944.18;;;9.56;56.78
40794;BME280;26502;51.886;15.604;2024-02-23T10:45:40;98946.23;;;9.54;56.56
40794;BME280;26502;51.886;15.604;2024-02-23T10:51:08;98942.36;;;9.44;56.62
40794;BME280;26502;51.886;15.604;2024-02-23T10:56:35;98947.88;;;9.47;57.33
40794;BME280;26502;51.886;15.604;2024-02-23T11:02:03;98957.81;;;9.50;57.31
40794;BME280;26502;51.886;15.604;2024-02-23T11:07:30;98963.20;;;9.52;57.69
40794;BME280;26502;51.886;15.604;2024-02-23T11:13:00;98956.36;;;9.57;56.84
40794;BME280;26502;51.886;15.604;2024-02-23T11:18:30;98950.77;;;9.62;56.70
40794;BME280;26502;51.886;15.604;2024-02-23T11:23:56;98948.44;;;9.81;56.96
40794;BME280;26502;51.886;15.604;2024-02-23T11:29:31;98949.70;;;10.03;56.52
40794;BME280;26502;51.886;15.604;2024-02-23T11:34:59;98960.00;;;10.27;56.39
40794;BME280;26502;51.886;15.604;2024-02-23T11:40:27;98964.50;;;10.20;55.56
40794;BME280;26502;51.886;15.604;2024-02-23T11:45:53;98966.15;;;10.04;54.63
40794;BME280;26502;51.886;15.604;2024-02-23T11:51:19;98973.02;;;10.17;55.06
40794;BME280;26502;51.886;15.604;2024-02-23T11:56:46;98994.80;;;10.42;53.88
40794;BME280;26502;51.886;15.604;2024-02-23T12:02:13;99020.40;;;10.54;52.69
40794;BME280;26502;51.886;15.604;2024-02-23T12:07:40;99028.49;;;10.21;50.72
40794;BME280;26502;51.886;15.604;2024-02-23T12:13:06;99036.80;;;10.15;51.86
40794;BME280;26502;51.886;15.604;2024-02-23T12:18:35;99038.27;;;10.23;52.37
40794;BME280;26502;51.886;15.604;2024-02-23T12:24:05;99026.70;;;10.31;50.45
40794;BME280;26502;51.886;15.604;2024-02-23T12:29:32;99030.20;;;10.35;50.61
40794;BME280;26502;51.886;15.604;2024-02-23T12:35:00;99034.44;;;10.41;50.30
40794;BME280;26502;51.886;15.604;2024-02-23T12:40:26;99034.95;;;10.19;49.93
40794;BME280;26502;51.886;15.604;2024-02-23T12:45:52;99028.43;;;10.18;50.83
40794;BME280;26502;51.886;15.604;2024-02-23T12:51:19;99019.52;;;10.32;50.26
40794;BME280;26502;51.886;15.604;2024-02-23T12:56:45;99015.96;;;10.69;49.15
40794;BME280;26502;51.886;15.604;2024-02-23T13:02:13;99025.85;;;10.97;48.48
40794;BME280;26502;51.886;15.604;2024-02-23T13:07:38;99029.63;;;11.05;48.12
40794;BME280;26502;51.886;15.604;2024-02-23T13:13:06;99026.95;;;11.28;49.03
40794;BME280;26502;51.886;15.604;2024-02-23T13:18:33;99028.35;;;11.32;49.20
40794;BME280;26502;51.886;15.604;2024-02-23T13:23:59;99025.14;;;11.00;49.84
40794;BME280;26502;51.886;15.604;2024-02-23T13:29:25;99025.04;;;10.87;50.00
40794;BME280;26502;51.886;15.604;2024-02-23T13:34:51;99030.91;;;10.68;50.35
40794;BME280;26502;51.886;15.604;2024-02-23T13:40:17;99025.23;;;10.59;50.71
40794;BME280;26502;51.886;15.604;2024-02-23T13:45:51;99025.80;;;10.59;50.86
40794;BME280;26502;51.886;15.604;2024-02-23T13:51:18;99035.54;;;10.65;51.00
40794;BME280;26502;51.886;15.604;2024-02-23T13:56:44;99040.71;;;10.59;51.31
40794;BME280;26502;51.886;15.604;2024-02-23T14:02:10;99039.04;;;10.60;51.50
40794;BME280;26502;51.886;15.604;2024-02-23T14:07:36;99040.20;;;10.58;51.90
40794;BME280;26502;51.886;15.604;2024-02-23T14:13:02;99052.23;;;10.53;52.10
40794;BME280;26502;51.886;15.604;2024-02-23T14:18:29;99056.05;;;10.51;52.11
40794;BME280;26502;51.886;15.604;2024-02-23T14:23:56;99053.84;;;10.53;52.41
40794;BME280;26502;51.886;15.604;2024-02-23T14:29:22;99051.33;;;10.56;52.72
40794;BME280;26502;51.886;15.604;2024-02-23T14:34:48;99051.29;;;10.51;52.59
40794;BME280;26502;51.886;15.604;2024-02-23T14:40:15;99051.08;;;10.51;53.15
40794;BME280;26502;51.886;15.604;2024-02-23T14:45:41;99057.63;;;10.70;53.27
40794;BME280;26502;51.886;15.604;2024-02-23T14:51:07;99064.33;;;11.01;53.01
40794;BME280;26502;51.886;15.604;2024-02-23T14:56:33;99070.79;;;11.11;52.64
40794;BME280;26502;51.886;15.604;2024-02-23T15:01:59;99079.30;;;11.21;52.80
40794;BME280;26502;51.886;15.604;2024-02-23T15:07:25;99073.59;;;11.12;52.40
40794;BME280;26502;51.886;15.604;2024-02-23T15:12:52;99069.88;;;10.88;52.48
40794;BME280;26502;51.886;15.604;2024-02-23T15:18:18;99070.65;;;10.69;52.62
40794;BME280;26502;51.886;15.604;2024-02-23T15:23:44;99068.63;;;10.58;52.79
40794;BME280;26502;51.886;15.604;2024-02-23T15:29:13;99081.60;;;10.42;52.92
40794;BME280;26502;51.886;15.604;2024-02-23T15:34:38;99084.44;;;10.26;53.24
40794;BME280;26502;51.886;15.604;2024-02-23T15:40:07;99069.95;;;10.28;53.78
40794;BME280;26502;51.886;15.604;2024-02-23T15:45:33;99058.34;;;10.33;54.13
40794;BME280;26502;51.886;15.604;2024-02-23T15:50:59;99065.39;;;10.40;54.57
40794;BME280;26502;51.886;15.604;2024-02-23T15:56:25;99069.30;;;10.40;55.16
40794;BME280;26502;51.886;15.604;2024-02-23T16:01:51;99065.77;;;10.36;55.76
40794;BME280;26502;51.886;15.604;2024-02-23T16:07:17;99073.39;;;10.20;55.96
40794;BME280;26502;51.886;15.604;2024-02-23T16:12:50;99080.39;;;10.06;56.47
40794;BME280;26502;51.886;15.604;2024-02-23T16:18:16;99091.81;;;9.99;56.87
40794;BME280;26502;51.886;15.604;2024-02-23T16:23:42;99096.56;;;9.86;56.75
40794;BME280;26502;51.886;15.604;2024-02-23T16:29:08;99085.65;;;9.65;56.92
40794;BME280;26502;51.886;15.604;2024-02-23T16:34:34;99090.58;;;9.46;57.14
40794;BME280;26502;51.886;15.604;2024-02-23T16:40:00;99086.61;;;9.27;57.71
40794;BME280;26502;51.886;15.604;2024-02-23T16:45:26;99074.40;;;9.03;57.94
40794;BME280;26502;51.886;15.604;2024-02-23T16:50:52;99070.69;;;8.86;58.24
40794;BME280;26502;51.886;15.604;2024-02-23T16:56:21;99106.39;;;8.76;58.72
40794;BME280;26502;51.886;15.604;2024-02-23T17:01:47;99130.52;;;8.53;58.77
40794;BME280;26502;51.886;15.604;2024-02-23T17:07:12;99159.25;;;8.29;59.46
40794;BME280;26502;51.886;15.604;2024-02-23T17:12:39;99163.88;;;8.40;59.82
40794;BME280;26502;51.886;15.604;2024-02-23T17:18:31;99164.09;;;8.35;60.00
40794;BME280;26502;51.886;15.604;2024-02-23T17:24:08;99172.61;;;8.38;60.26
40794;BME280;26502;51.886;15.604;2024-02-23T17:29:34;99170.80;;;8.35;60.72
40794;BME280;26502;51.886;15.604;2024-02-23T17:35:00;99160.62;;;8.37;61.12
40794;BME280;26502;51.886;15.604;2024-02-23T17:40:26;99161.66;;;8.41;61.44
40794;BME280;26502;51.886;15.604;2024-02-23T17:45:51;99158.82;;;8.38;61.26
40794;BME280;26502;51.886;15.604;2024-02-23T17:51:17;99164.61;;;8.35;61.47
40794;BME280;26502;51.886;15.604;2024-02-23T17:56:43;99164.88;;;8.33;61.93
40794;BME280;26502;51.886;15.604;2024-02-23T18:02:09;99167.92;;;8.25;62.00
40794;BME280;26502;51.886;15.604;2024-02-23T18:07:35;99155.80;;;8.12;62.26
40794;BME280;26502;51.886;15.604;2024-02-23T18:13:01;99151.63;;;8.07;62.40
40794;BME280;26502;51.886;15.604;2024-02-23T18:18:28;99158.86;;;7.96;62.30
40794;BME280;26502;51.886;15.604;2024-02-23T18:23:54;99165.81;;;7.94;62.71
40794;BME280;26502;51.886;15.604;2024-02-23T18:29:21;99164.64;;;7.97;62.87
40794;BME280;26502;51.886;15.604;2024-02-23T18:34:47;99163.41;;;7.92;62.91
40794;BME280;26502;51.886;15.604;2024-02-23T18:40:15;99150.30;;;7.82;62.96
40794;BME280;26502;51.886;15.604;2024-02-23T18:45:41;99146.40;;;7.74;63.21
40794;BME280;26502;51.886;15.604;2024-02-23T18:51:07;99146.98;;;7.65;63.49
40794;BME280;26502;51.886;15.604;2024-02-23T18:56:33;99153.05;;;7.56;63.77
40794;BME280;26502;51.886;15.604;2024-02-23T19:01:59;99144.67;;;7.45;63.88
40794;BME280;26502;51.886;15.604;2024-02-23T19:07:26;99135.42;;;7.26;63.72
40794;BME280;26502;51.886;15.604;2024-02-23T19:12:52;99131.91;;;7.05;64.00
40794;BME280;26502;51.886;15.604;2024-02-23T19:18:18;99143.55;;;7.01;64.29
40794;BME280;26502;51.886;15.604;2024-02-23T19:23:45;99150.84;;;7.00;64.54
40794;BME280;26502;51.886;15.604;2024-02-23T19:29:10;99149.23;;;6.97;64.75
40794;BME280;26502;51.886;15.604;2024-02-23T19:34:37;99139.90;;;6.92;65.06
40794;BME280;26502;51.886;15.604;2024-02-23T19:40:04;99134.08;;;6.83;65.12
40794;BME280;26502;51.886;15.604;2024-02-23T19:45:32;99122.80;;;6.79;65.29
40794;BME280;26502;51.886;15.604;2024-02-23T19:50:58;99120.42;;;6.76;65.38
40794;BME280;26502;51.886;15.604;2024-02-23T19:56:25;99130.77;;;6.74;65.50
40794;BME280;26502;51.886;15.604;2024-02-23T20:01:51;99137.25;;;6.71;65.56
40794;BME280;26502;51.886;15.604;2024-02-23T20:07:17;99151.34;;;6.54;65.54
40794;BME280;26502;51.886;15.604;2024-02-23T20:12:43;99168.90;;;6.42;65.89
40794;BME280;26502;51.886;15.604;2024-02-23T20:18:09;99172.48;;;6.46;66.19
40794;BME280;26502;51.886;15.604;2024-02-23T20:23:38;99169.60;;;6.47;66.36
40794;BME280;26502;51.886;15.604;2024-02-23T20:29:42;99172.45;;;6.46;66.52
40794;BME280;26502;51.886;15.604;2024-02-23T20:35:08;99175.10;;;6.46;66.60
40794;BME280;26502;51.886;15.604;2024-02-23T20:40:34;99180.43;;;6.45;66.88
40794;BME280;26502;51.886;15.604;2024-02-23T20:46:03;99185.67;;;6.46;66.92
40794;BME280;26502;51.886;15.604;2024-02-23T20:51:29;99180.91;;;6.51;67.03
40794;BME280;26502;51.886;15.604;2024-02-23T20:56:54;99177.08;;;6.50;67.30
40794;BME280;26502;51.886;15.604;2024-02-23T21:02:20;99171.23;;;6.55;67.40
40794;BME280;26502;51.886;15.604;2024-02-23T21:07:46;99164.59;;;6.53;67.36
40794;BME280;26502;51.886;15.604;2024-02-23T21:13:12;99159.81;;;6.54;67.40
40794;BME280;26502;51.886;15.604;2024-02-23T21:18:38;99149.76;;;6.54;67.62
40794;BME280;26502;51.886;15.604;2024-02-23T21:24:05;99149.27;;;6.48;67.75
40794;BME280;26502;51.886;15.604;2024-02-23T21:29:33;99149.16;;;6.42;67.88
40794;BME280;26502;51.886;15.604;2024-02-23T21:34:59;99149.06;;;6.41;68.08
40794;BME280;26502;51.886;15.604;2024-02-23T21:40:26;99155.55;;;6.42;68.12
40794;BME280;26502;51.886;15.604;2024-02-23T21:45:52;99157.27;;;6.38;68.18
40794;BME280;26502;51.886;15.604;2024-02-23T21:51:18;99148.83;;;6.38;68.32
40794;BME280;26502;51.886;15.604;2024-02-23T21:56:43;99166.92;;;6.30;68.35
40794;BME280;26502;51.886;15.604;2024-02-23T22:02:09;99167.43;;;6.26;68.53
40794;BME280;26502;51.886;15.604;2024-02-23T22:07:35;99167.36;;;6.19;68.70
40794;BME280;26502;51.886;15.604;2024-02-23T22:13:01;99164.75;;;6.13;68.95
40794;BME280;26502;51.886;15.604;2024-02-23T22:18:27;99161.80;;;6.12;69.16
40794;BME280;26502;51.886;15.604;2024-02-23T22:23:59;99168.05;;;6.10;69.32
40794;BME280;26502;51.886;15.604;2024-02-23T22:29:25;99170.11;;;6.11;69.68
40794;BME280;26502;51.886;15.604;2024-02-23T22:34:51;99169.45;;;6.10;69.97
40794;BME280;26502;51.886;15.604;2024-02-23T22:40:17;99158.56;;;6.09;70.19
40794;BME280;26502;51.886;15.604;2024-02-23T22:45:43;99152.15;;;6.11;70.25
40794;BME280;26502;51.886;15.604;2024-02-23T22:51:10;99149.77;;;6.04;70.45
40794;BME280;26502;51.886;15.604;2024-02-23T22:56:36;99149.31;;;5.97;70.72
40794;BME280;26502;51.886;15.604;2024-02-23T23:02:02;99150.07;;;6.01;71.00
40794;BME280;26502;51.886;15.604;2024-02-23T23:07:28;99147.63;;;5.85;70.89
40794;BME280;26502;51.886;15.604;2024-02-23T23:12:53;99151.18;;;5.79;71.55
40794;BME280;26502;51.886;15.604;2024-02-23T23:18:19;99157.98;;;5.77;71.74
40794;BME280;26502;51.886;15.604;2024-02-23T23:23:47;99153.73;;;5.72;71.91
40794;BME280;26502;51.886;15.604;2024-02-23T23:29:13;99143.85;;;5.78;72.30
40794;BME280;26502;51.886;15.604;2024-02-23T23:34:41;99131.16;;;5.78;72.40
40794;BME280;26502;51.886;15.604;2024-02-23T23:40:10;99135.39;;;5.83;72.54
40794;BME280;26502;51.886;15.604;2024-02-23T23:45:36;99134.13;;;5.79;72.78
40794;BME280;26502;51.886;15.604;2024-02-23T23:51:02;99121.40;;;5.85;73.02
40794;BME280;26502;51.886;15.604;2024-02-23T23:56:28;99111.38;;;5.89;73.17
